sensor_id;sensor_type;location;lat;lon;timestamp;P1;durP1;ratioP1;P2;durP2;ratioP2
39918;SDS011;25589;51.552;13.424;2022-09-12T00:01:16;11.18;;;8.35;;
39918;SDS011;25589;51.552;13.424;2022-09-12T00:03:47;11.35;;;8.20;;
39918;SDS011;25589;51.552;13.424;2022-09-12T00:06:25;12.68;;;7.63;;
39918;SDS011;25589;51.552;13.424;2022-09-12T00:08:56;9.13;;;7.32;;
39918;SDS011;25589;51.552;13.424;2022-09-12T00:11:25;12.05;;;8.43;;
39918;SDS011;25589;51.552;13.424;2022-09-12T00:13:54;15.05;;;8.93;;
39918;SDS011;25589;51.552;13.424;2022-09-12T00:16:24;11.50;;;8.20;;
39918;SDS011;25589;51.552;13.424;2022-09-12T00:18:52;12.27;;;8.45;;
39918;SDS011;25589;51.552;13.424;2022-09-12T00:21:18;8.88;;;7.47;;
39918;SDS011;25589;51.552;13.424;2022-09-12T00:23:45;12.65;;;8.38;;
39918;SDS011;25589;51.552;13.424;2022-09-12T00:26:11;12.27;;;7.82;;
39918;SDS011;25589;51.552;13.424;2022-09-12T00:28:38;20.02;;;9.77;;
39918;SDS011;25589;51.552;13.424;2022-09-12T00:31:06;12.88;;;8.85;;
39918;SDS011;25589;51.552;13.424;2022-09-12T00:33:32;22.25;;;9.05;;
39918;SDS011;25589;51.552;13.424;2022-09-12T00:35:58;29.55;;;9.32;;
39918;SDS011;25589;51.552;13.424;2022-09-12T00:38:24;16.10;;;7.60;;
39918;SDS011;25589;51.552;13.424;2022-09-12T00:40:49;16.95;;;8.00;;
39918;SDS011;25589;51.552;13.424;2022-09-12T00:46:06;13.73;;;9.38;;
39918;SDS011;25589;51.552;13.424;2022-09-12T00:48:56;13.88;;;8.52;;
39918;SDS011;25589;51.552;13.424;2022-09-12T00:51:43;13.07;;;8.38;;
39918;SDS011;25589;51.552;13.424;2022-09-12T00:54:14;13.55;;;9.13;;
39918;SDS011;25589;51.552;13.424;2022-09-12T00:56:43;16.83;;;9.27;;
39918;SDS011;25589;51.552;13.424;2022-09-12T00:59:17;14.00;;;8.52;;
39918;SDS011;25589;51.552;13.424;2022-09-12T01:01:46;28.60;;;9.23;;
39918;SDS011;25589;51.552;13.424;2022-09-12T01:04:14;15.38;;;9.55;;
39918;SDS011;25589;51.552;13.424;2022-09-12T01:06:42;14.32;;;8.20;;
39918;SDS011;25589;51.552;13.424;2022-09-12T01:09:09;15.43;;;8.32;;
39918;SDS011;25589;51.552;13.424;2022-09-12T01:11:38;15.95;;;7.53;;
39918;SDS011;25589;51.552;13.424;2022-09-12T01:14:06;11.38;;;7.78;;
39918;SDS011;25589;51.552;13.424;2022-09-12T01:16:35;20.48;;;8.68;;
39918;SDS011;25589;51.552;13.424;2022-09-12T01:30:42;11.93;;;8.57;;
39918;SDS011;25589;51.552;13.424;2022-09-12T01:33:24;12.27;;;8.57;;
39918;SDS011;25589;51.552;13.424;2022-09-12T01:39:11;12.15;;;7.93;;
39918;SDS011;25589;51.552;13.424;2022-09-12T01:42:19;19.40;;;7.85;;
39918;SDS011;25589;51.552;13.424;2022-09-12T01:50:39;11.80;;;8.32;;
39918;SDS011;25589;51.552;13.424;2022-09-12T01:53:15;16.52;;;9.13;;
39918;SDS011;25589;51.552;13.424;2022-09-12T01:55:47;16.10;;;9.30;;
39918;SDS011;25589;51.552;13.424;2022-09-12T01:58:21;30.98;;;9.95;;
39918;SDS011;25589;51.552;13.424;2022-09-12T02:03:31;16.23;;;10.20;;
39918;SDS011;25589;51.552;13.424;2022-09-12T02:06:51;43.60;;;11.60;;
39918;SDS011;25589;51.552;13.424;2022-09-12T02:09:34;32.75;;;10.95;;
39918;SDS011;25589;51.552;13.424;2022-09-12T02:11:44;55.95;;;11.82;;
39918;SDS011;25589;51.552;13.424;2022-09-12T02:14:23;67.88;;;11.30;;
39918;SDS011;25589;51.552;13.424;2022-09-12T02:16:58;73.78;;;10.48;;
39918;SDS011;25589;51.552;13.424;2022-09-12T02:19:31;53.75;;;11.13;;
39918;SDS011;25589;51.552;13.424;2022-09-12T02:22:01;59.63;;;12.23;;
39918;SDS011;25589;51.552;13.424;2022-09-12T02:24:30;88.22;;;12.75;;
39918;SDS011;25589;51.552;13.424;2022-09-12T02:27:11;87.32;;;10.60;;
39918;SDS011;25589;51.552;13.424;2022-09-12T02:29:39;72.35;;;9.73;;
39918;SDS011;25589;51.552;13.424;2022-09-12T02:32:10;33.67;;;8.52;;
39918;SDS011;25589;51.552;13.424;2022-09-12T02:35:14;62.88;;;9.55;;
39918;SDS011;25589;51.552;13.424;2022-09-12T02:44:11;49.92;;;8.27;;
39918;SDS011;25589;51.552;13.424;2022-09-12T02:46:41;44.80;;;7.20;;
39918;SDS011;25589;51.552;13.424;2022-09-12T02:49:11;23.80;;;6.38;;
39918;SDS011;25589;51.552;13.424;2022-09-12T02:51:37;31.85;;;6.93;;
39918;SDS011;25589;51.552;13.424;2022-09-12T02:54:04;50.10;;;7.45;;
39918;SDS011;25589;51.552;13.424;2022-09-12T02:56:31;55.97;;;7.50;;
39918;SDS011;25589;51.552;13.424;2022-09-12T02:59:00;23.55;;;6.75;;
39918;SDS011;25589;51.552;13.424;2022-09-12T03:01:39;49.30;;;6.78;;
39918;SDS011;25589;51.552;13.424;2022-09-12T03:10:14;34.70;;;7.40;;
39918;SDS011;25589;51.552;13.424;2022-09-12T03:13:00;43.78;;;9.35;;
39918;SDS011;25589;51.552;13.424;2022-09-12T03:21:22;50.72;;;7.25;;
39918;SDS011;25589;51.552;13.424;2022-09-12T03:23:59;43.47;;;6.47;;
39918;SDS011;25589;51.552;13.424;2022-09-12T03:29:22;23.85;;;6.68;;
39918;SDS011;25589;51.552;13.424;2022-09-12T03:31:51;30.33;;;6.53;;
39918;SDS011;25589;51.552;13.424;2022-09-12T03:34:18;20.83;;;7.53;;
39918;SDS011;25589;51.552;13.424;2022-09-12T03:36:45;24.25;;;6.18;;
39918;SDS011;25589;51.552;13.424;2022-09-12T03:39:11;27.17;;;7.18;;
39918;SDS011;25589;51.552;13.424;2022-09-12T03:41:37;30.77;;;6.75;;
39918;SDS011;25589;51.552;13.424;2022-09-12T03:44:03;25.02;;;6.47;;
39918;SDS011;25589;51.552;13.424;2022-09-12T03:46:29;13.75;;;5.95;;
39918;SDS011;25589;51.552;13.424;2022-09-12T03:48:55;13.77;;;6.00;;
39918;SDS011;25589;51.552;13.424;2022-09-12T03:51:20;16.58;;;7.03;;
39918;SDS011;25589;51.552;13.424;2022-09-12T03:53:46;13.70;;;6.47;;
39918;SDS011;25589;51.552;13.424;2022-09-12T03:56:12;12.63;;;6.90;;
39918;SDS011;25589;51.552;13.424;2022-09-12T03:58:37;15.52;;;7.00;;
39918;SDS011;25589;51.552;13.424;2022-09-12T04:01:11;9.27;;;6.70;;
39918;SDS011;25589;51.552;13.424;2022-09-12T04:03:39;15.50;;;8.18;;
39918;SDS011;25589;51.552;13.424;2022-09-12T04:06:09;16.63;;;6.90;;
39918;SDS011;25589;51.552;13.424;2022-09-12T04:08:36;14.55;;;7.07;;
39918;SDS011;25589;51.552;13.424;2022-09-12T04:11:03;15.00;;;7.15;;
39918;SDS011;25589;51.552;13.424;2022-09-12T04:13:30;28.45;;;8.00;;
39918;SDS011;25589;51.552;13.424;2022-09-12T04:15:56;10.60;;;7.60;;
39918;SDS011;25589;51.552;13.424;2022-09-12T04:18:23;10.18;;;7.40;;
39918;SDS011;25589;51.552;13.424;2022-09-12T04:20:49;9.32;;;6.68;;
39918;SDS011;25589;51.552;13.424;2022-09-12T04:23:14;11.02;;;6.75;;
39918;SDS011;25589;51.552;13.424;2022-09-12T04:25:40;10.73;;;7.32;;
39918;SDS011;25589;51.552;13.424;2022-09-12T04:28:05;9.38;;;6.57;;
39918;SDS011;25589;51.552;13.424;2022-09-12T04:30:32;16.10;;;7.82;;
39918;SDS011;25589;51.552;13.424;2022-09-12T04:32:58;13.05;;;7.53;;
39918;SDS011;25589;51.552;13.424;2022-09-12T04:35:24;9.77;;;6.82;;
39918;SDS011;25589;51.552;13.424;2022-09-12T04:37:50;11.25;;;7.05;;
39918;SDS011;25589;51.552;13.424;2022-09-12T04:40:15;11.40;;;6.72;;
39918;SDS011;25589;51.552;13.424;2022-09-12T04:42:41;10.05;;;7.40;;
39918;SDS011;25589;51.552;13.424;2022-09-12T04:45:07;10.82;;;7.03;;
39918;SDS011;25589;51.552;13.424;2022-09-12T04:47:33;10.18;;;7.53;;
39918;SDS011;25589;51.552;13.424;2022-09-12T04:49:58;10.23;;;7.78;;
39918;SDS011;25589;51.552;13.424;2022-09-12T04:52:24;11.20;;;7.88;;
39918;SDS011;25589;51.552;13.424;2022-09-12T04:54:50;11.98;;;8.35;;
39918;SDS011;25589;51.552;13.424;2022-09-12T04:57:16;11.10;;;7.85;;
39918;SDS011;25589;51.552;13.424;2022-09-12T04:59:42;10.93;;;8.80;;
39918;SDS011;25589;51.552;13.424;2022-09-12T05:02:07;12.13;;;8.80;;
39918;SDS011;25589;51.552;13.424;2022-09-12T05:04:33;10.30;;;8.23;;
39918;SDS011;25589;51.552;13.424;2022-09-12T05:06:58;12.18;;;8.63;;
39918;SDS011;25589;51.552;13.424;2022-09-12T05:09:24;12.10;;;8.60;;
39918;SDS011;25589;51.552;13.424;2022-09-12T05:11:49;10.25;;;8.32;;
39918;SDS011;25589;51.552;13.424;2022-09-12T05:14:15;11.10;;;8.80;;
39918;SDS011;25589;51.552;13.424;2022-09-12T05:16:41;11.13;;;8.70;;
39918;SDS011;25589;51.552;13.424;2022-09-12T05:19:08;11.10;;;8.43;;
39918;SDS011;25589;51.552;13.424;2022-09-12T05:21:35;11.10;;;8.98;;
39918;SDS011;25589;51.552;13.424;2022-09-12T05:24:00;12.57;;;9.27;;
39918;SDS011;25589;51.552;13.424;2022-09-12T05:26:26;14.02;;;9.60;;
39918;SDS011;25589;51.552;13.424;2022-09-12T05:28:52;10.32;;;8.70;;
39918;SDS011;25589;51.552;13.424;2022-09-12T05:31:19;11.02;;;8.80;;
39918;SDS011;25589;51.552;13.424;2022-09-12T05:33:48;12.93;;;8.95;;
39918;SDS011;25589;51.552;13.424;2022-09-12T05:36:18;13.95;;;9.40;;
39918;SDS011;25589;51.552;13.424;2022-09-12T05:38:53;11.55;;;8.55;;
39918;SDS011;25589;51.552;13.424;2022-09-12T05:41:24;15.75;;;8.98;;
39918;SDS011;25589;51.552;13.424;2022-09-12T05:43:51;10.48;;;8.50;;
39918;SDS011;25589;51.552;13.424;2022-09-12T05:46:19;11.70;;;9.20;;
39918;SDS011;25589;51.552;13.424;2022-09-12T05:48:47;15.63;;;9.05;;
39918;SDS011;25589;51.552;13.424;2022-09-12T05:51:15;19.58;;;9.95;;
39918;SDS011;25589;51.552;13.424;2022-09-12T05:53:43;17.42;;;10.10;;
39918;SDS011;25589;51.552;13.424;2022-09-12T05:56:14;14.15;;;10.43;;
39918;SDS011;25589;51.552;13.424;2022-09-12T05:58:51;11.45;;;9.95;;
39918;SDS011;25589;51.552;13.424;2022-09-12T06:01:25;15.65;;;9.73;;
39918;SDS011;25589;51.552;13.424;2022-09-12T06:03:52;14.82;;;9.07;;
39918;SDS011;25589;51.552;13.424;2022-09-12T06:06:19;15.15;;;10.05;;
39918;SDS011;25589;51.552;13.424;2022-09-12T06:08:47;29.27;;;11.73;;
39918;SDS011;25589;51.552;13.424;2022-09-12T06:11:15;17.40;;;10.25;;
39918;SDS011;25589;51.552;13.424;2022-09-12T06:13:43;12.35;;;9.80;;
39918;SDS011;25589;51.552;13.424;2022-09-12T06:16:10;15.52;;;10.55;;
39918;SDS011;25589;51.552;13.424;2022-09-12T06:18:40;15.18;;;10.95;;
39918;SDS011;25589;51.552;13.424;2022-09-12T06:21:10;18.08;;;10.52;;
39918;SDS011;25589;51.552;13.424;2022-09-12T06:23:36;12.90;;;10.15;;
39918;SDS011;25589;51.552;13.424;2022-09-12T06:26:04;17.75;;;10.90;;
39918;SDS011;25589;51.552;13.424;2022-09-12T06:28:31;35.35;;;11.77;;
39918;SDS011;25589;51.552;13.424;2022-09-12T06:31:02;16.48;;;11.13;;
39918;SDS011;25589;51.552;13.424;2022-09-12T06:33:29;18.83;;;10.95;;
39918;SDS011;25589;51.552;13.424;2022-09-12T06:36:42;14.27;;;10.15;;
39918;SDS011;25589;51.552;13.424;2022-09-12T06:38:47;13.88;;;9.50;;
39918;SDS011;25589;51.552;13.424;2022-09-12T06:41:17;12.77;;;10.20;;
39918;SDS011;25589;51.552;13.424;2022-09-12T06:43:42;14.45;;;10.43;;
39918;SDS011;25589;51.552;13.424;2022-09-12T06:46:08;15.60;;;11.00;;
39918;SDS011;25589;51.552;13.424;2022-09-12T06:48:35;12.95;;;9.93;;
39918;SDS011;25589;51.552;13.424;2022-09-12T06:51:02;11.65;;;9.63;;
39918;SDS011;25589;51.552;13.424;2022-09-12T06:53:29;13.80;;;10.65;;
39918;SDS011;25589;51.552;13.424;2022-09-12T06:56:04;13.18;;;10.68;;
39918;SDS011;25589;51.552;13.424;2022-09-12T06:58:31;14.27;;;10.88;;
39918;SDS011;25589;51.552;13.424;2022-09-12T07:01:11;13.95;;;10.77;;
39918;SDS011;25589;51.552;13.424;2022-09-12T07:03:39;16.95;;;12.00;;
39918;SDS011;25589;51.552;13.424;2022-09-12T07:06:09;13.18;;;9.98;;
39918;SDS011;25589;51.552;13.424;2022-09-12T07:08:36;13.48;;;10.70;;
39918;SDS011;25589;51.552;13.424;2022-09-12T07:11:09;12.63;;;10.30;;
39918;SDS011;25589;51.552;13.424;2022-09-12T07:13:43;14.38;;;11.27;;
39918;SDS011;25589;51.552;13.424;2022-09-12T07:16:10;12.35;;;9.63;;
39918;SDS011;25589;51.552;13.424;2022-09-12T07:18:37;13.63;;;10.85;;
39918;SDS011;25589;51.552;13.424;2022-09-12T07:21:04;11.90;;;9.98;;
39918;SDS011;25589;51.552;13.424;2022-09-12T07:23:32;12.65;;;10.40;;
39918;SDS011;25589;51.552;13.424;2022-09-12T07:25:58;11.75;;;9.52;;
39918;SDS011;25589;51.552;13.424;2022-09-12T07:28:24;12.55;;;10.60;;
39918;SDS011;25589;51.552;13.424;2022-09-12T07:30:52;11.40;;;10.13;;
39918;SDS011;25589;51.552;13.424;2022-09-12T07:33:19;13.10;;;9.95;;
39918;SDS011;25589;51.552;13.424;2022-09-12T07:35:45;12.85;;;9.70;;
39918;SDS011;25589;51.552;13.424;2022-09-12T07:38:11;12.00;;;9.85;;
39918;SDS011;25589;51.552;13.424;2022-09-12T07:40:36;10.90;;;9.48;;
39918;SDS011;25589;51.552;13.424;2022-09-12T07:43:02;13.48;;;10.45;;
39918;SDS011;25589;51.552;13.424;2022-09-12T07:45:28;12.30;;;10.68;;
39918;SDS011;25589;51.552;13.424;2022-09-12T07:47:53;13.90;;;10.55;;
39918;SDS011;25589;51.552;13.424;2022-09-12T07:50:19;12.68;;;10.35;;
39918;SDS011;25589;51.552;13.424;2022-09-12T07:52:45;15.48;;;10.68;;
39918;SDS011;25589;51.552;13.424;2022-09-12T07:55:10;12.13;;;9.68;;
39918;SDS011;25589;51.552;13.424;2022-09-12T07:57:36;12.77;;;9.85;;
39918;SDS011;25589;51.552;13.424;2022-09-12T08:00:02;12.65;;;9.98;;
39918;SDS011;25589;51.552;13.424;2022-09-12T08:02:37;10.73;;;9.60;;
39918;SDS011;25589;51.552;13.424;2022-09-12T08:05:03;10.35;;;8.93;;
39918;SDS011;25589;51.552;13.424;2022-09-12T08:07:29;10.48;;;9.30;;
39918;SDS011;25589;51.552;13.424;2022-09-12T08:09:54;11.82;;;8.85;;
39918;SDS011;25589;51.552;13.424;2022-09-12T08:12:20;10.60;;;8.40;;
39918;SDS011;25589;51.552;13.424;2022-09-12T08:14:46;9.80;;;8.45;;
39918;SDS011;25589;51.552;13.424;2022-09-12T08:17:12;11.13;;;8.73;;
39918;SDS011;25589;51.552;13.424;2022-09-12T08:19:38;9.70;;;8.27;;
39918;SDS011;25589;51.552;13.424;2022-09-12T08:22:03;10.18;;;8.27;;
39918;SDS011;25589;51.552;13.424;2022-09-12T08:24:29;9.43;;;8.32;;
39918;SDS011;25589;51.552;13.424;2022-09-12T08:26:56;9.45;;;8.45;;
39918;SDS011;25589;51.552;13.424;2022-09-12T08:29:21;8.90;;;7.28;;
39918;SDS011;25589;51.552;13.424;2022-09-12T08:31:47;8.90;;;7.32;;
39918;SDS011;25589;51.552;13.424;2022-09-12T08:34:12;6.70;;;5.75;;
39918;SDS011;25589;51.552;13.424;2022-09-12T08:36:41;6.15;;;5.45;;
39918;SDS011;25589;51.552;13.424;2022-09-12T08:39:06;9.98;;;5.88;;
39918;SDS011;25589;51.552;13.424;2022-09-12T08:41:37;5.80;;;4.85;;
39918;SDS011;25589;51.552;13.424;2022-09-12T08:47:24;4.32;;;3.78;;
39918;SDS011;25589;51.552;13.424;2022-09-12T08:52:48;4.60;;;3.55;;
39918;SDS011;25589;51.552;13.424;2022-09-12T08:55:39;6.82;;;5.03;;
39918;SDS011;25589;51.552;13.424;2022-09-12T08:58:16;6.25;;;4.28;;
39918;SDS011;25589;51.552;13.424;2022-09-12T09:06:53;4.20;;;3.05;;
39918;SDS011;25589;51.552;13.424;2022-09-12T09:12:16;3.30;;;2.97;;
39918;SDS011;25589;51.552;13.424;2022-09-12T09:17:43;3.20;;;2.63;;
39918;SDS011;25589;51.552;13.424;2022-09-12T09:20:33;3.10;;;2.78;;
39918;SDS011;25589;51.552;13.424;2022-09-12T09:23:15;2.40;;;2.15;;
39918;SDS011;25589;51.552;13.424;2022-09-12T09:28:29;3.20;;;2.92;;
39918;SDS011;25589;51.552;13.424;2022-09-12T09:31:03;2.78;;;1.92;;
39918;SDS011;25589;51.552;13.424;2022-09-12T09:33:32;2.55;;;2.08;;
39918;SDS011;25589;51.552;13.424;2022-09-12T09:36:04;2.28;;;1.80;;
39918;SDS011;25589;51.552;13.424;2022-09-12T09:39:08;2.75;;;1.42;;
39918;SDS011;25589;51.552;13.424;2022-09-12T09:41:48;1.83;;;1.60;;
39918;SDS011;25589;51.552;13.424;2022-09-12T09:44:26;1.52;;;1.40;;
39918;SDS011;25589;51.552;13.424;2022-09-12T09:46:54;3.60;;;1.98;;
39918;SDS011;25589;51.552;13.424;2022-09-12T09:49:22;1.73;;;1.40;;
39918;SDS011;25589;51.552;13.424;2022-09-12T09:51:49;1.95;;;1.48;;
39918;SDS011;25589;51.552;13.424;2022-09-12T09:56:47;2.70;;;1.60;;
39918;SDS011;25589;51.552;13.424;2022-09-12T09:59:24;1.75;;;1.50;;
39918;SDS011;25589;51.552;13.424;2022-09-12T10:01:52;1.88;;;1.30;;
39918;SDS011;25589;51.552;13.424;2022-09-12T10:04:22;3.80;;;1.35;;
39918;SDS011;25589;51.552;13.424;2022-09-12T10:06:50;1.52;;;1.40;;
39918;SDS011;25589;51.552;13.424;2022-09-12T10:09:25;2.88;;;1.38;;
39918;SDS011;25589;51.552;13.424;2022-09-12T10:11:57;2.10;;;1.45;;
39918;SDS011;25589;51.552;13.424;2022-09-12T10:14:28;1.25;;;1.15;;
39918;SDS011;25589;51.552;13.424;2022-09-12T10:17:09;1.40;;;1.30;;
39918;SDS011;25589;51.552;13.424;2022-09-12T10:19:52;1.95;;;1.58;;
39918;SDS011;25589;51.552;13.424;2022-09-12T10:22:20;2.67;;;1.85;;
39918;SDS011;25589;51.552;13.424;2022-09-12T10:24:55;1.50;;;1.27;;
39918;SDS011;25589;51.552;13.424;2022-09-12T10:27:25;1.63;;;1.52;;
39918;SDS011;25589;51.552;13.424;2022-09-12T10:29:55;2.25;;;1.52;;
39918;SDS011;25589;51.552;13.424;2022-09-12T10:32:37;2.08;;;1.67;;
39918;SDS011;25589;51.552;13.424;2022-09-12T10:35:17;1.30;;;1.20;;
39918;SDS011;25589;51.552;13.424;2022-09-12T10:37:49;1.42;;;1.33;;
39918;SDS011;25589;51.552;13.424;2022-09-12T10:40:22;1.38;;;1.27;;
39918;SDS011;25589;51.552;13.424;2022-09-12T10:45:50;6.35;;;1.40;;
39918;SDS011;25589;51.552;13.424;2022-09-12T10:48:27;1.27;;;1.15;;
39918;SDS011;25589;51.552;13.424;2022-09-12T10:50:57;2.50;;;1.38;;
39918;SDS011;25589;51.552;13.424;2022-09-12T10:53:25;1.75;;;1.60;;
39918;SDS011;25589;51.552;13.424;2022-09-12T10:58:40;1.73;;;1.63;;
39918;SDS011;25589;51.552;13.424;2022-09-12T11:01:35;2.50;;;1.67;;
39918;SDS011;25589;51.552;13.424;2022-09-12T11:07:19;1.63;;;1.30;;
39918;SDS011;25589;51.552;13.424;2022-09-12T11:10:05;1.42;;;1.30;;
39918;SDS011;25589;51.552;13.424;2022-09-12T11:12:48;1.52;;;1.30;;
39918;SDS011;25589;51.552;13.424;2022-09-12T11:27:02;1.30;;;1.20;;
39918;SDS011;25589;51.552;13.424;2022-09-12T11:35:17;2.10;;;1.45;;
39918;SDS011;25589;51.552;13.424;2022-09-12T11:38:10;1.55;;;1.17;;
39918;SDS011;25589;51.552;13.424;2022-09-12T11:40:43;1.20;;;1.10;;
39918;SDS011;25589;51.552;13.424;2022-09-12T11:45:58;1.50;;;1.40;;
39918;SDS011;25589;51.552;13.424;2022-09-12T11:51:05;2.13;;;1.80;;
39918;SDS011;25589;51.552;13.424;2022-09-12T11:53:39;1.20;;;1.10;;
39918;SDS011;25589;51.552;13.424;2022-09-12T11:56:14;2.35;;;1.20;;
39918;SDS011;25589;51.552;13.424;2022-09-12T11:58:42;2.80;;;1.30;;
39918;SDS011;25589;51.552;13.424;2022-09-12T12:01:14;1.30;;;1.20;;
39918;SDS011;25589;51.552;13.424;2022-09-12T12:03:44;1.10;;;1.08;;
39918;SDS011;25589;51.552;13.424;2022-09-12T12:08:41;1.95;;;1.60;;
39918;SDS011;25589;51.552;13.424;2022-09-12T12:11:08;1.25;;;1.10;;
39918;SDS011;25589;51.552;13.424;2022-09-12T12:13:37;2.58;;;1.30;;
39918;SDS011;25589;51.552;13.424;2022-09-12T12:18:56;1.70;;;1.10;;
39918;SDS011;25589;51.552;13.424;2022-09-12T12:21:38;1.20;;;1.10;;
39918;SDS011;25589;51.552;13.424;2022-09-12T12:29:05;1.13;;;1.07;;
39918;SDS011;25589;51.552;13.424;2022-09-12T12:34:30;1.38;;;1.25;;
39918;SDS011;25589;51.552;13.424;2022-09-12T12:36:58;1.50;;;1.40;;
39918;SDS011;25589;51.552;13.424;2022-09-12T12:45:00;1.60;;;1.20;;
39918;SDS011;25589;51.552;13.424;2022-09-12T12:47:32;1.20;;;1.10;;
39918;SDS011;25589;51.552;13.424;2022-09-12T12:50:06;2.40;;;1.50;;
39918;SDS011;25589;51.552;13.424;2022-09-12T12:55:30;1.33;;;1.10;;
39918;SDS011;25589;51.552;13.424;2022-09-12T13:03:39;1.58;;;1.33;;
39918;SDS011;25589;51.552;13.424;2022-09-12T13:06:42;1.27;;;1.17;;
39918;SDS011;25589;51.552;13.424;2022-09-12T13:09:30;1.30;;;1.20;;
39918;SDS011;25589;51.552;13.424;2022-09-12T13:12:09;3.22;;;1.20;;
39918;SDS011;25589;51.552;13.424;2022-09-12T13:20:16;1.38;;;1.27;;
39918;SDS011;25589;51.552;13.424;2022-09-12T13:22:44;2.67;;;1.38;;
39918;SDS011;25589;51.552;13.424;2022-09-12T13:28:04;1.23;;;1.13;;
39918;SDS011;25589;51.552;13.424;2022-09-12T13:30:37;1.95;;;1.20;;
39918;SDS011;25589;51.552;13.424;2022-09-12T13:33:17;2.40;;;1.48;;
39918;SDS011;25589;51.552;13.424;2022-09-12T13:36:16;2.97;;;1.33;;
39918;SDS011;25589;51.552;13.424;2022-09-12T13:44:18;2.65;;;1.30;;
39918;SDS011;25589;51.552;13.424;2022-09-12T13:46:45;0.80;;;0.80;;
39918;SDS011;25589;51.552;13.424;2022-09-12T13:49:18;1.40;;;1.20;;
39918;SDS011;25589;51.552;13.424;2022-09-12T13:52:34;3.80;;;1.20;;
39918;SDS011;25589;51.552;13.424;2022-09-12T13:54:46;2.08;;;1.02;;
39918;SDS011;25589;51.552;13.424;2022-09-12T13:57:28;1.30;;;1.10;;
39918;SDS011;25589;51.552;13.424;2022-09-12T13:59:55;1.55;;;1.05;;
39918;SDS011;25589;51.552;13.424;2022-09-12T14:02:23;1.70;;;1.52;;
39918;SDS011;25589;51.552;13.424;2022-09-12T14:04:52;2.72;;;1.10;;
39918;SDS011;25589;51.552;13.424;2022-09-12T14:07:45;1.20;;;1.10;;
39918;SDS011;25589;51.552;13.424;2022-09-12T14:10:25;1.33;;;1.10;;
39918;SDS011;25589;51.552;13.424;2022-09-12T14:13:00;1.10;;;1.00;;
39918;SDS011;25589;51.552;13.424;2022-09-12T14:15:30;1.27;;;1.00;;
39918;SDS011;25589;51.552;13.424;2022-09-12T14:18:00;1.05;;;0.95;;
39918;SDS011;25589;51.552;13.424;2022-09-12T14:20:28;1.42;;;1.00;;
39918;SDS011;25589;51.552;13.424;2022-09-12T14:23:01;2.35;;;1.30;;
39918;SDS011;25589;51.552;13.424;2022-09-12T14:25:44;1.40;;;1.10;;
39918;SDS011;25589;51.552;13.424;2022-09-12T14:28:12;2.15;;;1.02;;
39918;SDS011;25589;51.552;13.424;2022-09-12T14:30:55;2.67;;;1.20;;
39918;SDS011;25589;51.552;13.424;2022-09-12T14:33:33;1.50;;;1.40;;
39918;SDS011;25589;51.552;13.424;2022-09-12T14:36:20;1.67;;;1.30;;
39918;SDS011;25589;51.552;13.424;2022-09-12T14:38:48;3.25;;;0.95;;
39918;SDS011;25589;51.552;13.424;2022-09-12T14:41:21;1.92;;;1.20;;
39918;SDS011;25589;51.552;13.424;2022-09-12T14:43:51;1.20;;;1.13;;
39918;SDS011;25589;51.552;13.424;2022-09-12T14:46:33;1.40;;;1.23;;
39918;SDS011;25589;51.552;13.424;2022-09-12T14:49:04;1.08;;;1.00;;
39918;SDS011;25589;51.552;13.424;2022-09-12T14:51:41;1.35;;;1.25;;
39918;SDS011;25589;51.552;13.424;2022-09-12T14:57:40;1.05;;;0.95;;
39918;SDS011;25589;51.552;13.424;2022-09-12T15:02:36;1.60;;;1.10;;
39918;SDS011;25589;51.552;13.424;2022-09-12T15:07:35;1.20;;;1.10;;
39918;SDS011;25589;51.552;13.424;2022-09-12T15:10:17;1.17;;;1.10;;
39918;SDS011;25589;51.552;13.424;2022-09-12T15:12:47;1.00;;;1.00;;
39918;SDS011;25589;51.552;13.424;2022-09-12T15:17:43;1.08;;;1.00;;
39918;SDS011;25589;51.552;13.424;2022-09-12T15:20:09;0.88;;;0.88;;
39918;SDS011;25589;51.552;13.424;2022-09-12T15:22:36;1.90;;;1.42;;
39918;SDS011;25589;51.552;13.424;2022-09-12T15:25:02;2.75;;;1.40;;
39918;SDS011;25589;51.552;13.424;2022-09-12T15:27:29;0.85;;;0.85;;
39918;SDS011;25589;51.552;13.424;2022-09-12T15:29:54;1.35;;;1.00;;
39918;SDS011;25589;51.552;13.424;2022-09-12T15:32:23;2.20;;;1.00;;
39918;SDS011;25589;51.552;13.424;2022-09-12T15:34:51;1.60;;;1.08;;
39918;SDS011;25589;51.552;13.424;2022-09-12T15:37:18;0.80;;;0.80;;
39918;SDS011;25589;51.552;13.424;2022-09-12T15:39:45;1.20;;;1.10;;
39918;SDS011;25589;51.552;13.424;2022-09-12T15:42:10;1.88;;;1.20;;
39918;SDS011;25589;51.552;13.424;2022-09-12T15:44:37;1.08;;;1.00;;
39918;SDS011;25589;51.552;13.424;2022-09-12T15:47:03;1.90;;;1.05;;
39918;SDS011;25589;51.552;13.424;2022-09-12T15:49:29;1.08;;;0.98;;
39918;SDS011;25589;51.552;13.424;2022-09-12T15:51:54;2.47;;;1.05;;
39918;SDS011;25589;51.552;13.424;2022-09-12T15:54:20;1.15;;;1.00;;
39918;SDS011;25589;51.552;13.424;2022-09-12T15:56:45;1.13;;;1.05;;
39918;SDS011;25589;51.552;13.424;2022-09-12T15:59:11;1.20;;;1.00;;
39918;SDS011;25589;51.552;13.424;2022-09-12T16:01:37;1.95;;;0.85;;
39918;SDS011;25589;51.552;13.424;2022-09-12T16:04:03;1.05;;;1.00;;
39918;SDS011;25589;51.552;13.424;2022-09-12T16:06:42;1.65;;;1.10;;
39918;SDS011;25589;51.552;13.424;2022-09-12T16:09:08;1.63;;;0.95;;
39918;SDS011;25589;51.552;13.424;2022-09-12T16:11:34;1.67;;;1.20;;
39918;SDS011;25589;51.552;13.424;2022-09-12T16:13:59;1.92;;;1.10;;
39918;SDS011;25589;51.552;13.424;2022-09-12T16:16:25;1.20;;;1.10;;
39918;SDS011;25589;51.552;13.424;2022-09-12T16:18:50;2.80;;;1.52;;
39918;SDS011;25589;51.552;13.424;2022-09-12T16:21:16;1.95;;;1.20;;
39918;SDS011;25589;51.552;13.424;2022-09-12T16:23:43;1.73;;;1.27;;
39918;SDS011;25589;51.552;13.424;2022-09-12T16:26:09;1.38;;;1.27;;
39918;SDS011;25589;51.552;13.424;2022-09-12T16:28:34;2.88;;;1.45;;
39918;SDS011;25589;51.552;13.424;2022-09-12T16:31:01;2.40;;;1.27;;
39918;SDS011;25589;51.552;13.424;2022-09-12T16:33:28;1.17;;;1.02;;
39918;SDS011;25589;51.552;13.424;2022-09-12T16:36:02;1.65;;;1.20;;
39918;SDS011;25589;51.552;13.424;2022-09-12T16:38:29;1.80;;;1.40;;
39918;SDS011;25589;51.552;13.424;2022-09-12T16:40:58;1.42;;;1.33;;
39918;SDS011;25589;51.552;13.424;2022-09-12T16:43:25;2.63;;;1.38;;
39918;SDS011;25589;51.552;13.424;2022-09-12T16:45:58;1.38;;;1.27;;
39918;SDS011;25589;51.552;13.424;2022-09-12T16:48:28;1.20;;;1.20;;
39918;SDS011;25589;51.552;13.424;2022-09-12T16:50:55;2.40;;;1.30;;
39918;SDS011;25589;51.552;13.424;2022-09-12T16:53:22;2.30;;;1.40;;
39918;SDS011;25589;51.552;13.424;2022-09-12T16:55:48;1.42;;;1.33;;
39918;SDS011;25589;51.552;13.424;2022-09-12T16:58:14;1.73;;;1.50;;
39918;SDS011;25589;51.552;13.424;2022-09-12T17:00:40;2.22;;;1.40;;
39918;SDS011;25589;51.552;13.424;2022-09-12T17:03:06;2.20;;;1.25;;
39918;SDS011;25589;51.552;13.424;2022-09-12T17:05:31;1.85;;;1.50;;
39918;SDS011;25589;51.552;13.424;2022-09-12T17:07:57;2.60;;;1.40;;
39918;SDS011;25589;51.552;13.424;2022-09-12T17:10:22;1.67;;;1.58;;
39918;SDS011;25589;51.552;13.424;2022-09-12T17:12:48;2.20;;;1.38;;
39918;SDS011;25589;51.552;13.424;2022-09-12T17:15:14;1.50;;;1.30;;
39918;SDS011;25589;51.552;13.424;2022-09-12T17:17:40;1.67;;;1.58;;
39918;SDS011;25589;51.552;13.424;2022-09-12T17:20:05;2.72;;;1.40;;